Time;durP1;ratioP1;P1;durP2;ratioP2;P2;SDS_P1;SDS_P2;PMS_P1;PMS_P2;Temp;Humidity;BMP_temperature;BMP_pressure;BME280_temperature;BME280_humidity;BME280_pressure;Samples;Min_cycle;Max_cycle;Signal;HPM_P1;HPM_P2
2023/12/01 00:02:21;;;;;;;23.77;19.67;;;;;;;;;;4955622;28;20050;-72
2023/12/01 00:04:47;;;;;;;24.25;18.83;;;;;;;;;;4957983;28;20042;-73
2023/12/01 00:07:13;;;;;;;29.77;21.05;;;;;;;;;;4960210;28;20034;-72
2023/12/01 00:09:40;;;;;;;26.63;18.85;;;;;;;;;;4957350;28;20666;-72
2023/12/01 00:12:05;;;;;;;25.02;20.73;;;;;;;;;;4958200;28;20038;-72
2023/12/01 00:14:31;;;;;;;25.48;19.02;;;;;;;;;;4958513;28;20543;-72
2023/12/01 00:16:57;;;;;;;21.90;19.48;;;;;;;;;;4975015;28;20034;-72
2023/12/01 00:19:22;;;;;;;27.13;19.67;;;;;;;;;;4955582;28;20765;-72
2023/12/01 00:21:48;;;;;;;21.88;17.58;;;;;;;;;;4959910;28;20106;-72
2023/12/01 00:24:14;;;;;;;24.40;17.30;;;;;;;;;;4959703;28;20031;-72
2023/12/01 00:26:40;;;;;;;28.02;19.00;;;;;;;;;;4957840;28;20646;-72
2023/12/01 00:29:05;;;;;;;21.77;17.58;;;;;;;;;;4958508;28;20422;-72
2023/12/01 00:31:31;;;;;;;22.48;18.92;;;;;;;;;;4973190;28;20039;-72
2023/12/01 00:33:57;;;;;;;24.08;19.02;;;;;;;;;;4959752;28;20050;-72
2023/12/01 00:36:22;;;;;;;22.98;17.85;;;;;;;;;;4956500;28;20046;-72
2023/12/01 00:38:48;;;;;;;20.58;17.52;;;;;;;;;;4956155;28;20039;-72
2023/12/01 00:41:14;;;;;;;23.58;19.10;;;;;;;;;;4955976;28;20059;-73
2023/12/01 00:43:39;;;;;;;26.52;18.38;;;;;;;;;;4956623;28;20114;-73
2023/12/01 00:46:05;;;;;;;24.92;18.88;;;;;;;;;;4971866;28;20106;-72
2023/12/01 00:48:30;;;;;;;26.25;19.73;;;;;;;;;;4955837;28;20105;-72
2023/12/01 00:50:57;;;;;;;22.67;18.45;;;;;;;;;;4942636;28;20626;-73
2023/12/01 00:53:22;;;;;;;22.10;18.90;;;;;;;;;;4956714;28;20383;-72
2023/12/01 00:55:48;;;;;;;30.95;19.25;;;;;;;;;;4940928;28;20062;-72
2023/12/01 00:58:13;;;;;;;25.88;18.33;;;;;;;;;;4959851;28;20092;-72
2023/12/01 01:00:40;;;;;;;27.05;18.98;;;;;;;;;;4956579;28;20470;-72
2023/12/01 01:03:06;;;;;;;22.95;19.00;;;;;;;;;;4956058;28;20066;-73
2023/12/01 01:05:32;;;;;;;24.88;19.40;;;;;;;;;;4971734;28;20506;-72
2023/12/01 01:07:58;;;;;;;24.85;19.98;;;;;;;;;;4973538;28;20039;-72
2023/12/01 01:10:24;;;;;;;24.90;19.73;;;;;;;;;;4953637;28;20555;-72
2023/12/01 01:12:50;;;;;;;28.50;21.30;;;;;;;;;;4956399;28;20632;-72
2023/12/01 01:15:15;;;;;;;24.55;18.85;;;;;;;;;;4959554;28;20189;-72
2023/12/01 01:17:41;;;;;;;27.13;19.95;;;;;;;;;;4969423;28;20042;-72
2023/12/01 01:20:07;;;;;;;24.20;19.05;;;;;;;;;;4957699;28;20034;-72
2023/12/01 01:22:33;;;;;;;28.15;20.77;;;;;;;;;;4972481;28;20085;-72
2023/12/01 01:24:58;;;;;;;26.15;19.00;;;;;;;;;;4958308;28;20146;-72
2023/12/01 01:27:24;;;;;;;29.80;21.20;;;;;;;;;;4955055;28;20077;-72
2023/12/01 01:29:51;;;;;;;28.38;21.20;;;;;;;;;;4973582;28;20030;-72
2023/12/01 01:32:17;;;;;;;25.70;19.55;;;;;;;;;;4942425;28;20053;-72
2023/12/01 01:34:42;;;;;;;26.27;20.65;;;;;;;;;;4955420;28;20718;-72
2023/12/01 01:37:08;;;;;;;23.30;20.17;;;;;;;;;;4958155;28;20700;-72
2023/12/01 01:39:34;;;;;;;23.35;19.65;;;;;;;;;;4957038;28;20675;-72
2023/12/01 01:42:00;;;;;;;28.02;22.05;;;;;;;;;;4962632;28;20133;-72
2023/12/01 01:44:26;;;;;;;26.02;21.35;;;;;;;;;;4958830;28;20038;-72
2023/12/01 01:46:53;;;;;;;28.08;21.05;;;;;;;;;;4959699;28;20045;-73
2023/12/01 01:49:25;;;;;;;32.10;24.33;;;;;;;;;;4961809;28;20131;-73
2023/12/01 01:51:52;;;;;;;31.27;19.55;;;;;;;;;;4961457;28;20031;-73
2023/12/01 01:54:21;;;;;;;27.40;22.00;;;;;;;;;;4959946;28;20039;-73
2023/12/01 01:56:47;;;;;;;31.58;22.63;;;;;;;;;;4961872;28;20117;-74
2023/12/01 01:59:13;;;;;;;27.77;21.65;;;;;;;;;;4958381;28;20126;-74
2023/12/01 02:01:39;;;;;;;29.23;22.40;;;;;;;;;;4941824;28;20058;-73
2023/12/01 02:04:07;;;;;;;24.33;20.83;;;;;;;;;;4961660;28;20046;-73
2023/12/01 02:06:33;;;;;;;26.20;20.48;;;;;;;;;;4975547;28;20046;-73
2023/12/01 02:09:00;;;;;;;28.50;22.40;;;;;;;;;;4960530;28;20034;-74
2023/12/01 02:11:26;;;;;;;27.85;21.60;;;;;;;;;;4959329;28;20088;-73
2023/12/01 02:13:52;;;;;;;28.02;22.17;;;;;;;;;;4977479;28;20030;-73
2023/12/01 02:16:18;;;;;;;31.13;21.33;;;;;;;;;;4976375;28;20126;-73
2023/12/01 02:18:44;;;;;;;29.17;22.17;;;;;;;;;;4959106;28;20041;-73
2023/12/01 02:21:10;;;;;;;25.70;21.45;;;;;;;;;;4959069;28;20124;-74
2023/12/01 02:23:36;;;;;;;32.45;21.25;;;;;;;;;;4975713;28;20537;-73
2023/12/01 02:26:01;;;;;;;31.00;23.77;;;;;;;;;;4946612;28;20553;-74
2023/12/01 02:28:27;;;;;;;30.10;23.30;;;;;;;;;;4958769;28;20035;-73
2023/12/01 02:30:54;;;;;;;37.28;24.38;;;;;;;;;;4960658;28;20038;-74
2023/12/01 02:33:21;;;;;;;28.92;24.15;;;;;;;;;;4976884;28;20026;-74
2023/12/01 02:35:51;;;;;;;29.70;22.48;;;;;;;;;;4976415;28;20110;-73
2023/12/01 02:38:18;;;;;;;36.08;24.95;;;;;;;;;;4958663;28;20512;-73
2023/12/01 02:40:44;;;;;;;34.20;25.30;;;;;;;;;;4942770;28;20118;-73
2023/12/01 02:43:11;;;;;;;34.92;24.45;;;;;;;;;;4961771;28;20043;-74
2023/12/01 02:45:37;;;;;;;31.90;23.90;;;;;;;;;;4957111;28;20093;-73
2023/12/01 02:48:04;;;;;;;39.80;26.00;;;;;;;;;;4959225;28;20037;-73
2023/12/01 02:50:31;;;;;;;34.40;25.80;;;;;;;;;;4941833;28;20432;-73
2023/12/01 02:52:57;;;;;;;27.52;22.23;;;;;;;;;;4944677;28;20401;-73
2023/12/01 02:55:23;;;;;;;45.40;27.85;;;;;;;;;;4956704;28;20481;-73
2023/12/01 02:57:49;;;;;;;34.58;25.77;;;;;;;;;;4976175;28;20042;-73
2023/12/01 03:00:15;;;;;;;36.53;26.25;;;;;;;;;;4960009;28;20038;-72
2023/12/01 03:02:41;;;;;;;36.17;25.25;;;;;;;;;;4973285;28;20039;-72
2023/12/01 03:05:08;;;;;;;36.85;24.75;;;;;;;;;;4974426;28;20409;-72
2023/12/01 03:07:35;;;;;;;31.58;24.38;;;;;;;;;;4974751;28;20038;-72
2023/12/01 03:10:01;;;;;;;34.72;24.48;;;;;;;;;;4958424;28;20038;-72
2023/12/01 03:12:26;;;;;;;32.75;24.60;;;;;;;;;;4972796;28;20420;-71
2023/12/01 03:14:52;;;;;;;33.75;25.38;;;;;;;;;;4960182;28;20105;-71
2023/12/01 03:17:17;;;;;;;31.08;23.55;;;;;;;;;;4961592;28;20035;-71
2023/12/01 03:19:45;;;;;;;39.55;26.60;;;;;;;;;;4932148;28;20031;-71
2023/12/01 03:22:11;;;;;;;34.20;24.42;;;;;;;;;;4959698;28;20048;-71
2023/12/01 03:24:37;;;;;;;33.17;25.13;;;;;;;;;;4974734;28;20053;-71
2023/12/01 03:27:03;;;;;;;31.92;24.90;;;;;;;;;;4959638;28;20409;-70
2023/12/01 03:29:28;;;;;;;31.90;23.98;;;;;;;;;;4956586;28;20944;-71
2023/12/01 03:31:54;;;;;;;32.05;25.10;;;;;;;;;;4955444;28;20031;-70
2023/12/01 03:34:20;;;;;;;27.42;22.98;;;;;;;;;;4959930;28;20553;-71
2023/12/01 03:36:45;;;;;;;34.40;26.63;;;;;;;;;;4956231;28;20084;-70
2023/12/01 03:39:11;;;;;;;34.33;23.15;;;;;;;;;;4955271;28;20038;-71
2023/12/01 03:41:37;;;;;;;36.13;26.92;;;;;;;;;;4958450;28;20027;-71
2023/12/01 03:44:02;;;;;;;38.22;27.67;;;;;;;;;;4958146;28;20177;-71
2023/12/01 03:46:28;;;;;;;38.65;26.58;;;;;;;;;;4953472;28;20031;-71
2023/12/01 03:48:54;;;;;;;37.13;27.27;;;;;;;;;;4955026;28;20045;-71
2023/12/01 03:51:19;;;;;;;34.17;26.70;;;;;;;;;;4959452;28;20027;-71
2023/12/01 03:53:45;;;;;;;64.80;25.30;;;;;;;;;;4941913;28;20031;-71
2023/12/01 03:56:10;;;;;;;33.08;24.17;;;;;;;;;;4942696;28;20038;-71
2023/12/01 03:58:36;;;;;;;37.20;26.77;;;;;;;;;;4953021;28;20489;-71
2023/12/01 04:01:05;;;;;;;36.17;25.38;;;;;;;;;;4958773;28;20430;-71
2023/12/01 04:03:31;;;;;;;44.70;28.52;;;;;;;;;;4955229;28;20031;-71
2023/12/01 04:06:01;;;;;;;36.38;26.02;;;;;;;;;;4958728;28;20476;-71
2023/12/01 04:08:30;;;;;;;44.03;29.15;;;;;;;;;;4957434;28;20043;-71
2023/12/01 04:10:57;;;;;;;45.90;29.98;;;;;;;;;;4958709;28;20061;-71
2023/12/01 04:13:24;;;;;;;45.13;29.80;;;;;;;;;;4960326;28;20038;-71
2023/12/01 04:15:50;;;;;;;46.22;29.60;;;;;;;;;;4969208;28;20043;-71
2023/12/01 04:18:16;;;;;;;51.97;30.90;;;;;;;;;;4958230;28;20058;-71
2023/12/01 04:20:41;;;;;;;43.42;29.38;;;;;;;;;;4973281;28;20035;-71
2023/12/01 04:23:11;;;;;;;46.17;29.98;;;;;;;;;;4957130;28;20039;-71
2023/12/01 04:25:39;;;;;;;36.95;25.63;;;;;;;;;;4956624;28;20088;-71
2023/12/01 04:28:06;;;;;;;42.20;27.65;;;;;;;;;;4959848;28;20048;-71
2023/12/01 04:30:35;;;;;;;42.70;28.70;;;;;;;;;;4952262;28;20114;-71
2023/12/01 04:33:02;;;;;;;50.80;31.63;;;;;;;;;;4959478;28;20042;-71
2023/12/01 04:35:30;;;;;;;42.15;28.40;;;;;;;;;;4956697;28;20023;-71
2023/12/01 04:37:58;;;;;;;39.85;26.83;;;;;;;;;;4973507;28;20108;-72
2023/12/01 04:40:26;;;;;;;50.55;30.23;;;;;;;;;;4959130;28;20030;-71
2023/12/01 04:42:53;;;;;;;50.70;31.90;;;;;;;;;;4959891;28;20035;-71
2023/12/01 04:45:24;;;;;;;52.38;31.45;;;;;;;;;;4957004;28;20604;-71
2023/12/01 04:47:51;;;;;;;52.05;31.30;;;;;;;;;;4959454;28;20043;-71
2023/12/01 04:50:27;;;;;;;42.63;27.58;;;;;;;;;;4959316;28;20073;-72
2023/12/01 04:53:00;;;;;;;50.30;29.80;;;;;;;;;;4957428;28;20042;-71
2023/12/01 04:55:28;;;;;;;49.15;31.45;;;;;;;;;;4955401;28;20412;-71
2023/12/01 04:57:55;;;;;;;58.83;31.95;;;;;;;;;;4959772;28;20050;-71
2023/12/01 05:00:22;;;;;;;50.53;30.00;;;;;;;;;;4955279;28;20034;-71
2023/12/01 05:02:56;;;;;;;47.42;29.08;;;;;;;;;;4957740;28;20042;-71
2023/12/01 05:05:23;;;;;;;59.13;34.10;;;;;;;;;;4956926;28;20098;-72
2023/12/01 05:07:51;;;;;;;58.28;32.90;;;;;;;;;;4958095;28;20736;-72
2023/12/01 05:10:21;;;;;;;50.05;29.58;;;;;;;;;;4958538;28;20440;-72
2023/12/01 05:12:50;;;;;;;58.53;32.45;;;;;;;;;;4956990;28;20039;-71
2023/12/01 05:15:20;;;;;;;42.78;27.83;;;;;;;;;;4959213;28;20187;-71
2023/12/01 05:17:49;;;;;;;48.65;30.35;;;;;;;;;;4959499;28;20118;-72
2023/12/01 05:20:19;;;;;;;59.97;32.90;;;;;;;;;;4961004;28;20045;-72
2023/12/01 05:22:49;;;;;;;62.03;32.17;;;;;;;;;;4961366;28;20031;-72
2023/12/01 05:25:16;;;;;;;55.10;31.88;;;;;;;;;;4957759;28;20094;-72
2023/12/01 05:27:49;;;;;;;47.78;29.90;;;;;;;;;;4962072;28;20074;-72
2023/12/01 05:30:17;;;;;;;49.95;30.15;;;;;;;;;;4962764;28;20031;-72
2023/12/01 05:32:44;;;;;;;48.30;29.50;;;;;;;;;;4957091;28;20477;-72
2023/12/01 05:35:11;;;;;;;57.30;33.08;;;;;;;;;;4976074;28;20031;-73
2023/12/01 05:37:40;;;;;;;47.78;30.65;;;;;;;;;;4960731;28;20039;-72
2023/12/01 05:40:09;;;;;;;46.15;31.35;;;;;;;;;;4961240;28;20046;-72
2023/12/01 05:42:36;;;;;;;47.53;30.15;;;;;;;;;;4959881;28;20039;-72
2023/12/01 05:45:04;;;;;;;42.13;27.98;;;;;;;;;;4961439;28;20106;-72
2023/12/01 05:47:30;;;;;;;51.28;32.08;;;;;;;;;;4961680;28;20034;-72
2023/12/01 05:49:55;;;;;;;63.35;35.95;;;;;;;;;;4958123;28;20046;-72
2023/12/01 05:52:21;;;;;;;55.92;32.63;;;;;;;;;;4967163;28;20034;-72
2023/12/01 05:54:48;;;;;;;50.13;30.48;;;;;;;;;;4966218;28;20122;-73
2023/12/01 05:57:15;;;;;;;50.05;30.95;;;;;;;;;;4969146;28;20030;-73
2023/12/01 05:59:42;;;;;;;49.35;29.95;;;;;;;;;;4961770;28;20393;-73
2023/12/01 06:02:11;;;;;;;61.53;35.67;;;;;;;;;;4967089;28;20137;-73
2023/12/01 06:04:39;;;;;;;57.00;34.30;;;;;;;;;;4966233;28;20043;-73
2023/12/01 06:07:08;;;;;;;46.20;29.35;;;;;;;;;;4963866;28;20069;-73
2023/12/01 06:09:35;;;;;;;70.07;37.25;;;;;;;;;;4966203;28;20035;-73
2023/12/01 06:12:01;;;;;;;75.85;38.42;;;;;;;;;;4970568;28;20049;-73
2023/12/01 06:14:26;;;;;;;74.00;39.22;;;;;;;;;;4979944;28;20573;-73
2023/12/01 06:16:52;;;;;;;61.03;35.72;;;;;;;;;;4964349;28;20114;-73
2023/12/01 06:19:18;;;;;;;67.97;39.15;;;;;;;;;;4967227;28;20140;-73
2023/12/01 06:21:43;;;;;;;79.20;42.90;;;;;;;;;;4966374;28;20439;-73
2023/12/01 06:24:09;;;;;;;64.47;34.85;;;;;;;;;;4970027;28;20042;-73
2023/12/01 06:26:35;;;;;;;64.78;36.70;;;;;;;;;;4962287;28;20114;-73
2023/12/01 06:29:02;;;;;;;62.50;35.88;;;;;;;;;;4970303;28;20047;-73
2023/12/01 06:31:27;;;;;;;66.95;39.85;;;;;;;;;;4968036;28;20042;-73
2023/12/01 06:33:53;;;;;;;101.97;53.08;;;;;;;;;;4964532;28;20097;-73
2023/12/01 06:36:18;;;;;;;95.07;49.45;;;;;;;;;;4968413;28;20496;-72
2023/12/01 06:38:44;;;;;;;80.28;40.00;;;;;;;;;;4966382;28;20054;-73
2023/12/01 06:41:10;;;;;;;89.50;40.95;;;;;;;;;;4968806;28;20034;-73
2023/12/01 06:43:36;;;;;;;67.88;36.58;;;;;;;;;;4962855;28;20683;-73
2023/12/01 06:46:02;;;;;;;69.25;37.33;;;;;;;;;;4970777;28;20038;-73
2023/12/01 06:48:27;;;;;;;64.03;35.70;;;;;;;;;;4950001;28;20034;-73
2023/12/01 06:50:53;;;;;;;56.97;33.40;;;;;;;;;;4963872;28;20043;-73
2023/12/01 06:53:18;;;;;;;60.53;34.33;;;;;;;;;;4967947;28;20034;-73
2023/12/01 06:55:44;;;;;;;66.63;38.22;;;;;;;;;;4965086;28;20118;-72
2023/12/01 06:58:09;;;;;;;73.00;38.95;;;;;;;;;;4962818;28;20049;-72
2023/12/01 07:00:36;;;;;;;58.28;33.25;;;;;;;;;;4965741;28;20112;-72
2023/12/01 07:03:04;;;;;;;60.10;32.97;;;;;;;;;;4968606;28;20408;-72
2023/12/01 07:05:31;;;;;;;61.97;34.58;;;;;;;;;;4963955;28;20043;-72
2023/12/01 07:07:58;;;;;;;67.03;36.13;;;;;;;;;;4968829;28;20039;-73
2023/12/01 07:10:24;;;;;;;78.57;37.47;;;;;;;;;;4967496;28;20553;-72
2023/12/01 07:12:52;;;;;;;54.80;30.83;;;;;;;;;;4963571;28;20046;-72
2023/12/01 07:15:21;;;;;;;67.32;32.63;;;;;;;;;;4979185;28;20038;-72
2023/12/01 07:17:49;;;;;;;37.10;24.55;;;;;;;;;;4966836;28;20110;-72
2023/12/01 07:20:15;;;;;;;48.97;28.47;;;;;;;;;;4967168;28;20110;-73
2023/12/01 07:22:42;;;;;;;65.90;34.70;;;;;;;;;;4963191;28;20389;-72
2023/12/01 07:25:10;;;;;;;71.72;35.42;;;;;;;;;;4969288;28;20038;-73
2023/12/01 07:27:40;;;;;;;63.90;32.15;;;;;;;;;;4996989;28;20031;-72
2023/12/01 07:30:06;;;;;;;63.63;32.35;;;;;;;;;;4965176;28;20047;-72
2023/12/01 07:32:33;;;;;;;72.63;33.80;;;;;;;;;;4964044;28;20121;-73
2023/12/01 07:34:58;;;;;;;65.72;32.30;;;;;;;;;;4969007;28;20552;-72
2023/12/01 07:37:24;;;;;;;64.38;33.85;;;;;;;;;;4967891;28;20034;-72
2023/12/01 07:39:49;;;;;;;74.80;36.97;;;;;;;;;;4966405;28;20042;-72
2023/12/01 07:42:15;;;;;;;62.13;32.50;;;;;;;;;;4963939;28;20038;-72
2023/12/01 07:44:42;;;;;;;59.08;31.70;;;;;;;;;;4966391;28;20092;-72
2023/12/01 07:47:11;;;;;;;36.38;23.48;;;;;;;;;;4967725;28;20034;-72
2023/12/01 07:49:38;;;;;;;66.32;34.80;;;;;;;;;;4958318;28;20042;-72
2023/12/01 07:52:06;;;;;;;64.38;34.60;;;;;;;;;;4970580;28;20031;-72
2023/12/01 07:54:34;;;;;;;51.65;30.92;;;;;;;;;;4967165;28;20438;-73
2023/12/01 07:56:59;;;;;;;57.83;30.60;;;;;;;;;;4969777;28;20031;-72
2023/12/01 07:59:25;;;;;;;74.10;35.80;;;;;;;;;;4965978;28;20407;-71
2023/12/01 08:01:51;;;;;;;87.22;38.63;;;;;;;;;;4967699;28;20089;-71
2023/12/01 08:04:16;;;;;;;61.78;32.35;;;;;;;;;;4969987;28;20030;-71
2023/12/01 08:06:42;;;;;;;65.47;31.63;;;;;;;;;;4981289;28;20058;-72
2023/12/01 08:09:09;;;;;;;46.60;27.75;;;;;;;;;;4967515;28;20049;-72
2023/12/01 08:11:34;;;;;;;64.85;31.88;;;;;;;;;;4966919;28;20777;-71
2023/12/01 08:14:03;;;;;;;62.40;31.77;;;;;;;;;;4969866;28;20023;-72
2023/12/01 08:16:29;;;;;;;59.53;29.73;;;;;;;;;;4962564;28;20053;-72
2023/12/01 08:18:55;;;;;;;55.50;28.92;;;;;;;;;;4967783;28;20085;-69
2023/12/01 08:21:20;;;;;;;60.42;31.63;;;;;;;;;;4969802;28;20084;-72
2023/12/01 08:23:49;;;;;;;56.63;29.85;;;;;;;;;;4996646;28;20899;-72
2023/12/01 08:26:15;;;;;;;48.30;26.83;;;;;;;;;;4965031;28;20487;-72
2023/12/01 08:28:40;;;;;;;52.08;29.48;;;;;;;;;;4965930;28;20112;-71
2023/12/01 08:31:06;;;;;;;71.97;35.42;;;;;;;;;;4971672;28;20651;-71
2023/12/01 08:33:31;;;;;;;46.65;29.20;;;;;;;;;;4965966;28;20049;-71
2023/12/01 08:35:57;;;;;;;64.70;33.80;;;;;;;;;;4967085;28;20481;-71
2023/12/01 08:38:23;;;;;;;70.15;34.47;;;;;;;;;;4968498;28;20045;-71
2023/12/01 08:40:48;;;;;;;57.65;32.60;;;;;;;;;;4967496;28;20043;-72
2023/12/01 08:43:14;;;;;;;65.03;33.50;;;;;;;;;;4965035;28;20119;-72
2023/12/01 08:45:39;;;;;;;65.18;34.28;;;;;;;;;;4966899;28;20398;-72
2023/12/01 08:48:05;;;;;;;65.15;33.83;;;;;;;;;;4969411;28;20512;-71
2023/12/01 08:50:30;;;;;;;59.25;32.15;;;;;;;;;;4967426;28;20046;-71
2023/12/01 08:52:56;;;;;;;64.63;33.50;;;;;;;;;;4970100;28;20465;-71
2023/12/01 08:55:21;;;;;;;73.85;35.78;;;;;;;;;;4974015;28;20030;-71
2023/12/01 08:57:47;;;;;;;40.90;24.80;;;;;;;;;;4969373;28;20039;-71
2023/12/01 09:00:18;;;;;;;63.65;32.28;;;;;;;;;;4969199;28;20404;-71
2023/12/01 09:02:44;;;;;;;57.17;31.95;;;;;;;;;;4966450;28;20054;-72
2023/12/01 09:05:10;;;;;;;56.22;30.85;;;;;;;;;;4972316;28;20121;-71
2023/12/01 09:07:37;;;;;;;50.03;29.30;;;;;;;;;;4965732;28;20050;-71
2023/12/01 09:10:02;;;;;;;129.48;48.40;;;;;;;;;;4987585;28;20385;-71
2023/12/01 09:12:28;;;;;;;57.55;30.25;;;;;;;;;;4973052;28;20120;-71
2023/12/01 09:14:54;;;;;;;69.03;32.50;;;;;;;;;;4966483;28;20038;-71
2023/12/01 09:17:19;;;;;;;74.97;37.42;;;;;;;;;;4974484;28;20169;-71
2023/12/01 09:19:45;;;;;;;59.15;31.25;;;;;;;;;;4970926;28;20038;-71
2023/12/01 09:22:10;;;;;;;60.13;32.22;;;;;;;;;;4969460;28;20156;-73
2023/12/01 09:24:36;;;;;;;52.28;27.63;;;;;;;;;;4968157;28;20541;-74
2023/12/01 09:27:01;;;;;;;52.60;27.67;;;;;;;;;;4989795;28;20042;-73
2023/12/01 09:29:27;;;;;;;64.90;29.98;;;;;;;;;;4967010;28;20754;-73
2023/12/01 09:31:53;;;;;;;44.13;25.92;;;;;;;;;;4969845;28;20494;-73
2023/12/01 09:34:19;;;;;;;54.35;28.98;;;;;;;;;;4985394;28;20038;-74
2023/12/01 09:36:44;;;;;;;57.70;29.80;;;;;;;;;;4954090;28;20520;-73
2023/12/01 09:39:10;;;;;;;49.00;28.88;;;;;;;;;;4975343;28;20034;-74
2023/12/01 09:41:36;;;;;;;56.38;33.13;;;;;;;;;;4967301;28;20093;-74
2023/12/01 09:44:03;;;;;;;80.88;40.30;;;;;;;;;;4974073;28;20026;-73
2023/12/01 09:46:34;;;;;;;77.70;42.65;;;;;;;;;;4973303;28;20643;-74
2023/12/01 09:49:00;;;;;;;80.03;36.60;;;;;;;;;;4967672;28;20054;-73
2023/12/01 09:51:25;;;;;;;55.90;30.08;;;;;;;;;;4967187;28;20073;-74
2023/12/01 09:53:51;;;;;;;131.85;54.17;;;;;;;;;;4970144;28;20077;-73
2023/12/01 09:56:19;;;;;;;100.15;47.38;;;;;;;;;;4976503;28;20038;-74
2023/12/01 09:58:45;;;;;;;60.63;35.70;;;;;;;;;;4964606;28;20038;-73
2023/12/01 10:01:13;;;;;;;45.30;27.58;;;;;;;;;;4974706;28;20598;-73
2023/12/01 10:03:39;;;;;;;57.17;32.60;;;;;;;;;;4970853;28;20038;-73
2023/12/01 10:06:07;;;;;;;46.75;28.23;;;;;;;;;;4974836;28;20040;-73
2023/12/01 10:08:34;;;;;;;49.42;29.38;;;;;;;;;;4966354;28;20095;-74
2023/12/01 10:11:00;;;;;;;53.47;31.48;;;;;;;;;;4961821;28;20217;-73
2023/12/01 10:13:38;;;;;;;53.75;31.70;;;;;;;;;;4973185;28;20392;-73
2023/12/01 10:16:04;;;;;;;43.30;27.48;;;;;;;;;;4989098;28;20034;-73
2023/12/01 10:18:30;;;;;;;63.47;36.42;;;;;;;;;;4962868;28;20085;-73
2023/12/01 10:20:57;;;;;;;56.60;33.92;;;;;;;;;;4973028;28;20051;-73
2023/12/01 10:23:23;;;;;;;39.88;28.23;;;;;;;;;;4963199;28;20037;-72
2023/12/01 10:25:50;;;;;;;49.85;30.73;;;;;;;;;;4960361;28;20031;-73
2023/12/01 10:28:17;;;;;;;48.88;29.60;;;;;;;;;;4961544;28;20031;-73
2023/12/01 10:30:52;;;;;;;36.60;26.30;;;;;;;;;;4974216;28;20050;-73
2023/12/01 10:33:19;;;;;;;39.28;26.55;;;;;;;;;;4960039;28;20089;-73
2023/12/01 10:36:07;;;;;;;44.72;29.33;;;;;;;;;;4959204;28;20035;-73
2023/12/01 10:38:33;;;;;;;36.30;25.65;;;;;;;;;;4977268;28;20043;-73
2023/12/01 10:41:01;;;;;;;48.90;31.40;;;;;;;;;;4960443;28;21156;-72
2023/12/01 10:43:27;;;;;;;47.95;30.60;;;;;;;;;;4960985;28;20610;-74
2023/12/01 10:45:53;;;;;;;43.67;28.40;;;;;;;;;;4961410;28;20062;-73
2023/12/01 10:48:20;;;;;;;39.53;26.67;;;;;;;;;;4962524;28;20078;-74
2023/12/01 10:50:47;;;;;;;42.00;27.80;;;;;;;;;;4961058;28;20034;-74
2023/12/01 10:53:16;;;;;;;52.67;29.48;;;;;;;;;;4971853;28;20030;-74
2023/12/01 10:55:46;;;;;;;45.95;29.63;;;;;;;;;;4961444;28;20430;-74
2023/12/01 10:58:19;;;;;;;38.35;25.05;;;;;;;;;;4962975;28;20035;-74
2023/12/01 11:00:45;;;;;;;48.80;32.42;;;;;;;;;;4959210;28;20031;-74
2023/12/01 11:03:13;;;;;;;42.65;28.58;;;;;;;;;;4962118;28;20047;-74
2023/12/01 11:05:41;;;;;;;49.03;29.73;;;;;;;;;;4944648;28;20600;-74
2023/12/01 11:08:26;;;;;;;48.50;29.45;;;;;;;;;;4962496;28;20034;-74
2023/12/01 11:11:03;;;;;;;58.33;33.25;;;;;;;;;;4972520;28;20950;-73
2023/12/01 11:14:16;;;;;;;44.05;28.67;;;;;;;;;;4976658;28;20039;-74
2023/12/01 11:16:43;;;;;;;47.58;30.67;;;;;;;;;;4960815;28;20129;-74
2023/12/01 11:19:12;;;;;;;46.45;28.63;;;;;;;;;;4958766;28;20022;-73
2023/12/01 11:21:44;;;;;;;46.30;29.13;;;;;;;;;;4993409;28;20776;-73
2023/12/01 11:24:23;;;;;;;32.35;24.05;;;;;;;;;;4953608;28;20098;-73
2023/12/01 11:26:48;;;;;;;56.92;31.65;;;;;;;;;;4958821;28;20061;-73
2023/12/01 11:29:31;;;;;;;41.75;27.48;;;;;;;;;;4962084;28;20734;-73
2023/12/01 11:31:57;;;;;;;47.38;30.23;;;;;;;;;;4960085;28;20406;-74
2023/12/01 11:34:25;;;;;;;46.35;27.15;;;;;;;;;;4961265;28;20038;-73
2023/12/01 11:36:52;;;;;;;48.22;29.67;;;;;;;;;;4960909;28;20093;-73
2023/12/01 11:39:23;;;;;;;55.50;30.88;;;;;;;;;;4961251;28;20050;-73
2023/12/01 11:41:54;;;;;;;53.42;31.13;;;;;;;;;;4952526;28;20061;-74
2023/12/01 11:44:27;;;;;;;49.85;28.90;;;;;;;;;;4962920;28;20035;-74
2023/12/01 11:46:59;;;;;;;58.92;32.20;;;;;;;;;;4958415;28;20039;-74
2023/12/01 11:49:30;;;;;;;50.47;28.48;;;;;;;;;;4987652;28;20481;-74
2023/12/01 11:51:57;;;;;;;51.47;29.00;;;;;;;;;;4958088;28;20039;-74
2023/12/01 11:54:23;;;;;;;48.97;27.73;;;;;;;;;;4959574;28;20034;-74
2023/12/01 11:56:51;;;;;;;46.22;29.02;;;;;;;;;;4956800;28;20125;-73
2023/12/01 11:59:17;;;;;;;45.55;28.23;;;;;;;;;;4959604;28;20034;-74
2023/12/01 12:01:42;;;;;;;46.10;26.98;;;;;;;;;;4958449;28;20038;-74
2023/12/01 12:04:11;;;;;;;43.05;26.52;;;;;;;;;;4957512;28;20515;-73
2023/12/01 12:06:36;;;;;;;43.33;26.92;;;;;;;;;;4960290;28;20041;-74
2023/12/01 12:09:06;;;;;;;43.47;25.95;;;;;;;;;;4958303;28;20042;-73
2023/12/01 12:11:36;;;;;;;45.15;27.08;;;;;;;;;;4959562;28;20537;-73
2023/12/01 12:14:06;;;;;;;42.83;27.67;;;;;;;;;;4956839;28;20144;-74
2023/12/01 12:16:34;;;;;;;46.25;28.98;;;;;;;;;;4959376;28;20146;-73
2023/12/01 12:19:00;;;;;;;47.28;28.40;;;;;;;;;;4957663;28;20721;-73
2023/12/01 12:21:27;;;;;;;52.40;29.05;;;;;;;;;;4955564;28;20042;-74
2023/12/01 12:23:54;;;;;;;49.58;29.20;;;;;;;;;;4957838;28;20038;-73
2023/12/01 12:26:25;;;;;;;66.60;35.80;;;;;;;;;;4958622;28;20563;-74
2023/12/01 12:28:55;;;;;;;68.15;33.40;;;;;;;;;;4954013;28;20050;-74
2023/12/01 12:31:25;;;;;;;61.47;34.55;;;;;;;;;;4953552;28;20042;-76
2023/12/01 12:33:52;;;;;;;54.08;30.80;;;;;;;;;;4955599;28;20041;-74
2023/12/01 12:36:19;;;;;;;65.60;34.78;;;;;;;;;;4957267;28;20034;-75
2023/12/01 12:38:48;;;;;;;58.50;31.33;;;;;;;;;;4956661;28;20046;-76
2023/12/01 12:41:50;;;;;;;69.38;36.45;;;;;;;;;;4952809;28;20049;-75
2023/12/01 12:44:16;;;;;;;48.42;28.63;;;;;;;;;;4971694;28;20110;-76
2023/12/01 12:46:41;;;;;;;51.47;30.00;;;;;;;;;;4987423;28;20045;-76
2023/12/01 12:49:08;;;;;;;44.88;30.10;;;;;;;;;;4956470;28;20077;-75
2023/12/01 12:51:35;;;;;;;63.30;32.90;;;;;;;;;;4959826;28;20249;-76
2023/12/01 12:54:00;;;;;;;52.92;31.30;;;;;;;;;;4954815;28;20043;-75
2023/12/01 12:56:26;;;;;;;55.63;33.10;;;;;;;;;;4957134;28;20128;-76
2023/12/01 12:58:54;;;;;;;48.70;30.25;;;;;;;;;;4954672;28;20129;-76
2023/12/01 13:01:21;;;;;;;61.13;34.10;;;;;;;;;;4956955;28;20070;-75
2023/12/01 13:03:47;;;;;;;58.30;32.58;;;;;;;;;;4955932;28;20031;-75
2023/12/01 13:06:13;;;;;;;67.30;34.63;;;;;;;;;;4956847;28;20049;-76
2023/12/01 13:08:40;;;;;;;61.10;33.90;;;;;;;;;;4959926;28;20805;-75
2023/12/01 13:11:08;;;;;;;71.13;36.90;;;;;;;;;;4954367;28;20031;-75
2023/12/01 13:13:35;;;;;;;66.68;35.63;;;;;;;;;;4958452;28;20093;-76
2023/12/01 13:16:02;;;;;;;61.20;33.80;;;;;;;;;;4956758;28;20034;-76
2023/12/01 13:18:28;;;;;;;62.65;32.88;;;;;;;;;;4953709;28;20050;-77
2023/12/01 13:20:53;;;;;;;62.08;34.28;;;;;;;;;;4938633;28;20437;-75
2023/12/01 13:23:19;;;;;;;59.10;32.72;;;;;;;;;;4958719;28;20046;-75
2023/12/01 13:25:46;;;;;;;68.70;34.33;;;;;;;;;;4971399;28;20043;-76
2023/12/01 13:28:12;;;;;;;60.63;32.35;;;;;;;;;;4954964;28;20747;-75
2023/12/01 13:30:39;;;;;;;70.60;36.58;;;;;;;;;;4957399;28;20061;-75
2023/12/01 13:33:06;;;;;;;59.17;34.08;;;;;;;;;;4957186;28;20144;-75
2023/12/01 13:35:33;;;;;;;73.30;39.25;;;;;;;;;;4959193;28;20121;-75
2023/12/01 13:38:01;;;;;;;67.45;35.63;;;;;;;;;;4959868;28;20042;-75
2023/12/01 13:40:27;;;;;;;71.43;36.40;;;;;;;;;;4960879;28;20117;-75
2023/12/01 13:42:53;;;;;;;76.57;38.15;;;;;;;;;;4958261;28;20042;-75
2023/12/01 13:45:18;;;;;;;67.28;35.28;;;;;;;;;;4958309;28;20041;-75
2023/12/01 13:47:44;;;;;;;78.72;38.38;;;;;;;;;;4960488;28;20034;-75
2023/12/01 13:50:10;;;;;;;72.97;34.88;;;;;;;;;;4975054;28;20049;-74
2023/12/01 13:52:37;;;;;;;71.13;36.55;;;;;;;;;;4959091;28;20039;-74
2023/12/01 13:55:04;;;;;;;68.03;34.28;;;;;;;;;;4960636;28;20149;-74
2023/12/01 13:57:30;;;;;;;47.80;28.80;;;;;;;;;;4963971;28;20129;-74
2023/12/01 13:59:56;;;;;;;67.18;35.40;;;;;;;;;;4962895;28;20129;-73
2023/12/01 14:02:22;;;;;;;84.63;36.95;;;;;;;;;;4960446;28;20118;-73
2023/12/01 14:04:48;;;;;;;65.88;33.75;;;;;;;;;;4959839;28;20026;-73
2023/12/01 14:07:13;;;;;;;73.93;36.65;;;;;;;;;;4960974;28;20548;-74
2023/12/01 14:09:39;;;;;;;63.90;33.13;;;;;;;;;;4962385;28;20035;-74
2023/12/01 14:12:06;;;;;;;56.97;30.92;;;;;;;;;;4964174;28;20424;-74
2023/12/01 14:14:32;;;;;;;55.60;29.77;;;;;;;;;;4961599;28;20114;-73
2023/12/01 14:16:58;;;;;;;58.28;29.52;;;;;;;;;;4960235;28;20505;-73